createdAt,value
2017-11-17T00:00:51.037Z,0
2017-11-17T00:01:50.986Z,0
2017-11-17T00:02:51.009Z,0
2017-11-17T00:03:51.010Z,0
2017-11-17T00:04:50.771Z,0
2017-11-17T00:05:51.302Z,0
2017-11-17T00:06:51.327Z,0
2017-11-17T00:07:51.325Z,0
2017-11-17T00:08:51.074Z,0
2017-11-17T00:09:51.100Z,0
2017-11-17T00:10:51.112Z,0
2017-11-17T00:11:50.876Z,0
2017-11-17T00:12:51.141Z,0
2017-11-17T00:13:50.889Z,0
2017-11-17T00:14:50.898Z,0
2017-11-17T00:15:51.422Z,0
2017-11-17T00:16:51.462Z,0
2017-11-17T00:17:50.989Z,0
2017-11-17T00:18:51.474Z,0
2017-11-17T00:19:51.477Z,0
2017-11-17T00:20:51.239Z,0
2017-11-17T00:21:51.011Z,0
2017-11-17T00:22:51.529Z,0
2017-11-17T00:23:51.015Z,0
2017-11-17T00:24:51.552Z,0
2017-11-17T00:25:51.561Z,0
2017-11-17T00:26:51.321Z,0
2017-11-17T00:27:51.322Z,0
2017-11-17T00:28:51.339Z,0
2017-11-17T00:29:51.353Z,0
2017-11-17T00:30:51.624Z,0
2017-11-17T00:31:51.380Z,0
2017-11-17T00:32:51.185Z,0
2017-11-17T00:33:51.407Z,0
2017-11-17T00:34:51.680Z,0
2017-11-17T00:35:51.170Z,0
2017-11-17T00:36:51.721Z,0
2017-11-17T00:37:51.460Z,0
2017-11-17T00:38:51.472Z,0
2017-11-17T00:39:51.496Z,0
2017-11-17T00:40:51.762Z,0
2017-11-17T00:41:51.778Z,0
2017-11-17T00:42:51.529Z,0
2017-11-17T00:43:51.535Z,0
2017-11-17T00:44:51.814Z,0
2017-11-17T00:45:51.823Z,0
2017-11-17T00:46:51.316Z,0
2017-11-17T00:47:51.640Z,0
2017-11-17T00:48:51.605Z,0
2017-11-17T00:49:51.359Z,0
2017-11-17T00:50:51.625Z,0
2017-11-17T00:51:51.639Z,0
2017-11-17T00:52:51.694Z,0
2017-11-17T00:53:51.669Z,0
2017-11-17T00:54:51.423Z,0
2017-11-17T00:55:51.955Z,0
2017-11-17T00:56:51.720Z,0
2017-11-17T00:57:51.729Z,0
2017-11-17T00:58:51.731Z,0
2017-11-17T00:59:52.005Z,0
2017-11-17T01:00:52.032Z,0
2017-11-17T01:01:51.771Z,0
2017-11-17T01:02:51.837Z,0
2017-11-17T01:03:52.055Z,0
2017-11-17T01:04:52.080Z,0
2017-11-17T01:05:51.833Z,0
2017-11-17T01:06:52.101Z,0
2017-11-17T01:07:52.109Z,0
2017-11-17T01:08:51.864Z,0
2017-11-17T01:09:51.880Z,0
2017-11-17T01:10:51.893Z,0
2017-11-17T01:11:51.911Z,0
2017-11-17T01:12:51.925Z,0
2017-11-17T01:13:51.941Z,0
2017-11-17T01:14:51.944Z,0
2017-11-17T01:15:51.955Z,0
2017-11-17T01:16:52.007Z,0
2017-11-17T01:17:52.036Z,0
2017-11-17T01:18:52.012Z,0
2017-11-17T01:19:52.015Z,0
2017-11-17T01:20:52.024Z,0
2017-11-17T01:21:52.299Z,0
2017-11-17T01:22:52.051Z,0
2017-11-17T01:23:52.325Z,0
2017-11-17T01:24:52.083Z,0
2017-11-17T01:25:52.106Z,0
2017-11-17T01:26:52.365Z,0
2017-11-17T01:27:52.119Z,0
2017-11-17T01:28:52.135Z,0
2017-11-17T01:29:52.401Z,0
2017-11-17T01:30:52.158Z,0
2017-11-17T01:31:52.181Z,0
2017-11-17T01:32:52.499Z,0
2017-11-17T01:33:52.462Z,0
2017-11-17T01:34:52.222Z,0
2017-11-17T01:35:52.498Z,0
2017-11-17T01:36:52.255Z,0
2017-11-17T01:37:52.256Z,0
2017-11-17T01:38:52.269Z,0
2017-11-17T01:39:52.529Z,0
2017-11-17T01:40:52.049Z,0
2017-11-17T01:41:52.303Z,0
2017-11-17T01:42:52.586Z,0
2017-11-17T01:43:52.331Z,0
2017-11-17T01:44:52.084Z,0
2017-11-17T01:45:52.354Z,0
2017-11-17T01:46:52.624Z,0
2017-11-17T01:47:52.703Z,0
2017-11-17T01:48:52.394Z,0
2017-11-17T01:49:52.432Z,0
2017-11-17T01:50:51.910Z,0
2017-11-17T01:51:52.439Z,0
2017-11-17T01:52:52.451Z,0
2017-11-17T01:53:52.227Z,0
2017-11-17T01:54:52.479Z,0
2017-11-17T01:55:52.233Z,0
2017-11-17T01:56:52.770Z,0
2017-11-17T01:57:52.515Z,0
2017-11-17T01:58:52.527Z,0
2017-11-17T01:59:52.801Z,0
2017-11-17T02:00:52.556Z,0
2017-11-17T02:01:52.314Z,0
2017-11-17T02:02:52.667Z,0
2017-11-17T02:03:52.856Z,0
2017-11-17T02:04:52.889Z,0
2017-11-17T02:05:52.623Z,0
2017-11-17T02:06:52.889Z,0
2017-11-17T02:07:52.653Z,0
2017-11-17T02:08:52.669Z,0
2017-11-17T02:09:52.419Z,0
2017-11-17T02:10:52.430Z,0
2017-11-17T02:11:52.958Z,0
2017-11-17T02:12:52.983Z,0
2017-11-17T02:13:52.466Z,0
2017-11-17T02:14:52.488Z,0
2017-11-17T02:15:52.518Z,0
2017-11-17T02:16:53.026Z,0
2017-11-17T02:17:53.040Z,0
2017-11-17T02:18:52.596Z,0
2017-11-17T02:19:52.549Z,0
2017-11-17T02:20:52.812Z,0
2017-11-17T02:21:52.839Z,0
2017-11-17T02:22:53.102Z,0
2017-11-17T02:23:53.114Z,0
2017-11-17T02:24:52.873Z,0
2017-11-17T02:25:52.629Z,0
2017-11-17T02:26:52.906Z,0
2017-11-17T02:27:52.907Z,0
2017-11-17T02:28:53.181Z,0
2017-11-17T02:29:52.681Z,0
2017-11-17T02:30:53.219Z,0
2017-11-17T02:31:52.975Z,0
2017-11-17T02:32:53.241Z,0
2017-11-17T02:33:52.780Z,0
2017-11-17T02:34:53.278Z,0
2017-11-17T02:35:53.018Z,0
2017-11-17T02:36:53.067Z,0
2017-11-17T02:37:53.050Z,0
2017-11-17T02:38:53.346Z,0
2017-11-17T02:39:53.081Z,0
2017-11-17T02:40:53.084Z,0
2017-11-17T02:41:53.107Z,0
2017-11-17T02:42:52.851Z,0
2017-11-17T02:43:53.402Z,0
2017-11-17T02:44:53.158Z,0
2017-11-17T02:45:52.895Z,0
2017-11-17T02:46:53.169Z,0
2017-11-17T02:47:53.177Z,0
2017-11-17T02:48:53.538Z,0
2017-11-17T02:49:53.462Z,0
2017-11-17T02:50:53.472Z,0
2017-11-17T02:51:53.490Z,0
2017-11-17T02:52:53.273Z,0
2017-11-17T02:53:53.258Z,0
2017-11-17T02:54:53.522Z,0
2017-11-17T02:55:53.303Z,0
2017-11-17T02:56:53.038Z,0
2017-11-17T02:57:53.570Z,0
2017-11-17T02:58:53.578Z,0
2017-11-17T02:59:53.345Z,0
2017-11-17T03:00:53.607Z,0
2017-11-17T03:01:53.627Z,0
2017-11-17T03:02:53.125Z,0
2017-11-17T03:03:53.388Z,0
2017-11-17T03:04:53.669Z,0
2017-11-17T03:05:53.416Z,0
2017-11-17T03:06:53.248Z,0
2017-11-17T03:07:53.438Z,0
2017-11-17T03:08:53.739Z,0
2017-11-17T03:09:53.464Z,0
2017-11-17T03:10:53.480Z,0
2017-11-17T03:11:53.231Z,0
2017-11-17T03:12:53.540Z,0
2017-11-17T03:13:53.521Z,0
2017-11-17T03:14:53.533Z,0
2017-11-17T03:15:53.800Z,0
2017-11-17T03:16:53.818Z,0
2017-11-17T03:17:53.829Z,0
2017-11-17T03:18:53.850Z,0
2017-11-17T03:19:53.871Z,0
2017-11-17T03:20:53.872Z,0
2017-11-17T03:21:53.371Z,0
2017-11-17T03:22:53.655Z,0
2017-11-17T03:23:53.916Z,0
2017-11-17T03:24:53.931Z,0
2017-11-17T03:25:53.673Z,0
2017-11-17T03:26:53.951Z,0
2017-11-17T03:27:53.966Z,0
2017-11-17T03:28:53.207Z,0
2017-11-17T03:29:54.012Z,0
2017-11-17T03:30:54.021Z,0
2017-11-17T03:31:53.785Z,0
2017-11-17T03:32:54.044Z,0
2017-11-17T03:33:53.783Z,0
2017-11-17T03:34:54.072Z,0
2017-11-17T03:35:54.069Z,0
2017-11-17T03:36:54.094Z,0
2017-11-17T03:37:54.151Z,0
2017-11-17T03:38:54.121Z,0
2017-11-17T03:39:53.874Z,0
2017-11-17T03:40:54.147Z,0
2017-11-17T03:41:54.189Z,0
2017-11-17T03:43:53.922Z,0
2017-11-17T03:44:54.193Z,0
2017-11-17T03:45:53.945Z,0
2017-11-17T03:46:53.968Z,0
2017-11-17T03:47:54.228Z,0
2017-11-17T03:48:53.988Z,0
2017-11-17T03:49:53.998Z,0
2017-11-17T03:50:54.276Z,0
2017-11-17T03:51:53.767Z,0
2017-11-17T03:52:54.348Z,0
2017-11-17T03:53:54.319Z,0
2017-11-17T03:54:54.362Z,0
2017-11-17T03:55:54.344Z,0
2017-11-17T03:56:54.137Z,0
2017-11-17T03:57:54.376Z,0
2017-11-17T03:58:54.377Z,0
2017-11-17T03:59:54.137Z,0
2017-11-17T04:00:54.416Z,0
2017-11-17T04:01:53.907Z,0
2017-11-17T04:02:54.169Z,0
2017-11-17T04:03:54.193Z,0
2017-11-17T04:04:53.945Z,0
2017-11-17T04:05:54.211Z,0
2017-11-17T04:06:54.488Z,0
2017-11-17T04:07:54.243Z,0
2017-11-17T04:08:54.511Z,0
2017-11-17T04:09:54.011Z,0
2017-11-17T04:10:54.020Z,0
2017-11-17T04:11:54.614Z,0
2017-11-17T04:12:54.313Z,0
2017-11-17T04:13:54.322Z,0
2017-11-17T04:14:54.334Z,0
2017-11-17T04:15:54.351Z,0
2017-11-17T04:16:54.358Z,0
2017-11-17T04:17:54.370Z,0
2017-11-17T04:18:54.642Z,0
2017-11-17T04:19:54.429Z,0
2017-11-17T04:20:54.668Z,0
2017-11-17T04:21:54.427Z,0
2017-11-17T04:22:54.438Z,0
2017-11-17T04:23:54.708Z,0
2017-11-17T04:24:54.462Z,0
2017-11-17T04:25:54.745Z,0
2017-11-17T04:26:54.501Z,0
2017-11-17T04:27:54.508Z,0
2017-11-17T04:28:54.266Z,0
2017-11-17T04:29:54.324Z,0
2017-11-17T04:30:54.558Z,0
2017-11-17T04:31:54.836Z,0
2017-11-17T04:32:54.586Z,0
2017-11-17T04:33:54.838Z,0
2017-11-17T04:34:54.602Z,0
2017-11-17T04:35:54.874Z,0
2017-11-17T04:36:54.629Z,0
2017-11-17T04:37:54.385Z,0
2017-11-17T04:38:54.660Z,0
2017-11-17T04:39:54.679Z,0
2017-11-17T04:40:54.425Z,0
2017-11-17T04:41:54.706Z,0
2017-11-17T04:42:54.453Z,0
2017-11-17T04:43:54.723Z,0
2017-11-17T04:44:55.042Z,0
2017-11-17T04:45:54.592Z,0
2017-11-17T04:46:55.031Z,0
2017-11-17T04:47:54.544Z,0
2017-11-17T04:48:54.799Z,0
2017-11-17T04:49:55.065Z,0
2017-11-17T04:50:55.082Z,0
2017-11-17T04:51:54.831Z,0
2017-11-17T04:52:54.588Z,0
2017-11-17T04:53:55.135Z,0
2017-11-17T04:54:54.869Z,0
2017-11-17T04:55:54.631Z,0
2017-11-17T04:56:54.916Z,0
2017-11-17T04:57:54.906Z,0
2017-11-17T04:58:54.974Z,0
2017-11-17T04:59:54.679Z,0
2017-11-17T05:00:55.209Z,0
2017-11-17T05:01:55.271Z,0
2017-11-17T05:02:54.984Z,0
2017-11-17T05:03:55.000Z,0
2017-11-17T05:04:55.023Z,0
2017-11-17T05:05:55.030Z,0
2017-11-17T05:06:55.033Z,0
2017-11-17T05:07:54.787Z,0
2017-11-17T05:08:55.055Z,0
2017-11-17T05:09:55.095Z,0
2017-11-17T05:10:55.080Z,0
2017-11-17T05:11:55.098Z,0
2017-11-17T05:12:55.424Z,0
2017-11-17T05:13:55.131Z,0
2017-11-17T05:14:55.395Z,0
2017-11-17T05:15:54.950Z,0
2017-11-17T05:16:55.236Z,0
2017-11-17T05:17:55.188Z,0
2017-11-17T05:18:55.200Z,0
2017-11-17T05:19:55.466Z,0
2017-11-17T05:20:54.964Z,0
2017-11-17T05:21:55.237Z,0
2017-11-17T05:22:54.993Z,0
2017-11-17T05:23:55.542Z,0
2017-11-17T05:24:55.018Z,0
2017-11-17T05:25:55.573Z,0
2017-11-17T05:26:55.302Z,0
2017-11-17T05:27:55.074Z,0
2017-11-17T05:28:55.583Z,0
2017-11-17T05:29:55.605Z,0
2017-11-17T05:30:55.112Z,0
2017-11-17T05:31:55.715Z,0
2017-11-17T05:32:55.404Z,0
2017-11-17T05:33:55.654Z,0
2017-11-17T05:34:55.665Z,0
2017-11-17T05:35:55.689Z,0
2017-11-17T05:36:55.905Z,0
2017-11-17T05:37:55.203Z,0
2017-11-17T05:38:55.727Z,0
2017-11-17T05:39:55.220Z,0
2017-11-17T05:40:55.493Z,0
2017-11-17T05:41:55.776Z,0
2017-11-17T05:42:55.797Z,0
2017-11-17T05:43:55.538Z,0
2017-11-17T05:44:55.552Z,0
2017-11-17T05:45:55.564Z,0
2017-11-17T05:46:55.628Z,0
2017-11-17T05:47:55.843Z,0
2017-11-17T05:48:55.862Z,0
2017-11-17T05:49:55.610Z,0
2017-11-17T05:50:55.625Z,0
2017-11-17T05:51:55.642Z,0
2017-11-17T05:52:55.652Z,0
2017-11-17T05:53:55.669Z,0
2017-11-17T05:54:55.418Z,0
2017-11-17T05:55:55.442Z,0
2017-11-17T05:56:55.445Z,4
2017-11-17T05:57:55.209Z,4
2017-11-17T05:58:55.742Z,0
2017-11-17T05:59:55.754Z,4
2017-11-17T06:00:56.018Z,4
2017-11-17T06:01:56.085Z,4
2017-11-17T06:02:55.530Z,4
2017-11-17T06:03:56.058Z,4
2017-11-17T06:04:55.822Z,8
2017-11-17T06:05:56.093Z,8
2017-11-17T06:06:55.588Z,8
2017-11-17T06:07:56.115Z,12
2017-11-17T06:08:55.906Z,12
2017-11-17T06:09:55.881Z,12
2017-11-17T06:10:55.642Z,16
2017-11-17T06:11:55.906Z,20
2017-11-17T06:12:55.937Z,20
2017-11-17T06:13:55.951Z,24
2017-11-17T06:14:55.954Z,32
2017-11-17T06:15:55.970Z,32
2017-11-17T06:16:55.981Z,36
2017-11-17T06:17:56.045Z,40
2017-11-17T06:18:56.287Z,48
2017-11-17T06:19:56.285Z,56
2017-11-17T06:20:56.042Z,60
2017-11-17T06:21:56.326Z,68
2017-11-17T06:22:56.316Z,72
2017-11-17T06:23:56.086Z,76
2017-11-17T06:24:55.828Z,80
2017-11-17T06:25:56.100Z,88
2017-11-17T06:26:56.412Z,92
2017-11-17T06:27:56.385Z,104
2017-11-17T06:28:55.887Z,116
2017-11-17T06:29:56.166Z,124
2017-11-17T06:30:56.181Z,144
2017-11-17T06:31:56.183Z,164
2017-11-17T06:32:56.246Z,188
2017-11-17T06:33:56.220Z,216
2017-11-17T06:34:56.232Z,244
2017-11-17T06:35:56.495Z,272
2017-11-17T06:36:56.510Z,312
2017-11-17T06:37:56.269Z,344
2017-11-17T06:38:56.304Z,384
2017-11-17T06:39:56.550Z,420
2017-11-17T06:40:56.315Z,456
2017-11-17T06:41:56.583Z,484
2017-11-17T06:42:56.083Z,516
2017-11-17T06:43:56.089Z,544
2017-11-17T06:44:56.372Z,564
2017-11-17T06:45:55.867Z,572
2017-11-17T06:46:56.138Z,592
2017-11-17T06:47:56.704Z,624
2017-11-17T06:48:56.422Z,664
2017-11-17T06:49:56.712Z,716
2017-11-17T06:50:56.703Z,760
2017-11-17T06:51:56.467Z,784
2017-11-17T06:52:56.726Z,784
2017-11-17T06:53:56.759Z,776
2017-11-17T06:54:56.244Z,764
2017-11-17T06:55:56.533Z,744
2017-11-17T06:56:56.783Z,752
2017-11-17T06:57:56.810Z,788
2017-11-17T06:58:56.307Z,836
2017-11-17T06:59:56.315Z,880
2017-11-17T07:00:56.843Z,908
2017-11-17T07:01:56.603Z,916
2017-11-17T07:02:56.915Z,928
2017-11-17T07:03:56.884Z,952
2017-11-17T07:04:56.639Z,980
2017-11-17T07:05:56.925Z,996
2017-11-17T07:06:56.919Z,1008
2017-11-17T07:07:56.447Z,1024
2017-11-17T07:08:56.699Z,1064
2017-11-17T07:09:56.725Z,1136
2017-11-17T07:10:56.736Z,1220
2017-11-17T07:11:57.019Z,1276
2017-11-17T07:12:56.754Z,1268
2017-11-17T07:13:56.794Z,1224
2017-11-17T07:14:56.784Z,1164
2017-11-17T07:15:56.552Z,1088
2017-11-17T07:16:56.821Z,1024
2017-11-17T07:17:57.087Z,1000
2017-11-17T07:18:57.154Z,1000
2017-11-17T07:19:56.857Z,1040
2017-11-17T07:20:57.173Z,1116
2017-11-17T07:21:57.139Z,1216
2017-11-17T07:22:56.894Z,1332
2017-11-17T07:23:57.168Z,1444
2017-11-17T07:24:56.928Z,1488
2017-11-17T07:25:56.956Z,1440
2017-11-17T07:26:57.220Z,1332
2017-11-17T07:27:56.971Z,1228
2017-11-17T07:28:56.725Z,1156
2017-11-17T07:29:57.289Z,1140
2017-11-17T07:30:57.007Z,1148
2017-11-17T07:31:57.037Z,1144
2017-11-17T07:32:57.310Z,1132
2017-11-17T07:33:56.810Z,1140
2017-11-17T07:34:56.551Z,1172
2017-11-17T07:35:56.566Z,1220
2017-11-17T07:36:57.117Z,1260
2017-11-17T07:37:56.908Z,1320
2017-11-17T07:38:57.123Z,1380
2017-11-17T07:39:57.130Z,1420
2017-11-17T07:40:57.408Z,1432
2017-11-17T07:41:57.174Z,1400
2017-11-17T07:42:57.178Z,1360
2017-11-17T07:43:57.452Z,1328
2017-11-17T07:44:57.205Z,1344
2017-11-17T07:45:57.479Z,1380
2017-11-17T07:46:57.507Z,1408
2017-11-17T07:47:57.511Z,1456
2017-11-17T07:48:57.530Z,1536
2017-11-17T07:49:57.546Z,1612
2017-11-17T07:50:57.028Z,1624
2017-11-17T07:51:57.584Z,1564
2017-11-17T07:52:57.370Z,1544
2017-11-17T07:53:57.605Z,1608
2017-11-17T07:54:57.090Z,1700
2017-11-17T07:55:57.626Z,1716
2017-11-17T07:56:57.397Z,1660
2017-11-17T07:57:57.138Z,1620
2017-11-17T07:58:57.165Z,1660
2017-11-17T07:59:57.671Z,1776
2017-11-17T08:00:57.707Z,1900
2017-11-17T08:01:57.453Z,1988
2017-11-17T08:02:57.479Z,2000
2017-11-17T08:03:57.472Z,1964
2017-11-17T08:04:57.229Z,2004
2017-11-17T08:05:57.509Z,2136
2017-11-17T08:06:57.514Z,2292
2017-11-17T08:07:57.794Z,2384
2017-11-17T08:08:57.288Z,2388
2017-11-17T08:09:57.567Z,2360
2017-11-17T08:10:57.836Z,2376
2017-11-17T08:11:57.637Z,2460
2017-11-17T08:12:57.604Z,2572
2017-11-17T08:13:57.628Z,2672
2017-11-17T08:14:57.888Z,2740
2017-11-17T08:15:57.651Z,2776
2017-11-17T08:16:57.908Z,2824
2017-11-17T08:17:57.929Z,2876
2017-11-17T08:18:57.940Z,2896
2017-11-17T08:19:57.955Z,2880
2017-11-17T08:20:57.460Z,2836
2017-11-17T08:21:57.736Z,2792
2017-11-17T08:22:58.027Z,2764
2017-11-17T08:23:58.050Z,2716
2017-11-17T08:24:57.783Z,2660
2017-11-17T08:25:58.056Z,2640
2017-11-17T08:26:57.806Z,2676
2017-11-17T08:27:58.143Z,2732
2017-11-17T08:28:58.102Z,2748
2017-11-17T08:29:57.594Z,2740
2017-11-17T08:30:57.619Z,2728
2017-11-17T08:31:57.885Z,2752
2017-11-17T08:32:58.151Z,2800
2017-11-17T08:33:57.912Z,2856
2017-11-17T08:34:58.189Z,2868
2017-11-17T08:35:57.686Z,2836
2017-11-17T08:36:57.692Z,2784
2017-11-17T08:37:57.966Z,2712
2017-11-17T08:38:58.005Z,2648
2017-11-17T08:39:58.289Z,2608
2017-11-17T08:40:58.267Z,2580
2017-11-17T08:41:58.029Z,2532
2017-11-17T08:42:58.038Z,2488
2017-11-17T08:43:58.059Z,2476
2017-11-17T08:44:58.094Z,2488
2017-11-17T08:45:57.879Z,2556
2017-11-17T08:46:58.363Z,2692
2017-11-17T08:47:58.116Z,2844
2017-11-17T08:48:58.126Z,2984
2017-11-17T08:49:58.151Z,3148
2017-11-17T08:50:58.422Z,3328
2017-11-17T08:51:57.918Z,3568
2017-11-17T08:52:58.467Z,3896
2017-11-17T08:53:58.204Z,4276
2017-11-17T08:54:58.481Z,4612
2017-11-17T08:55:57.980Z,4820
2017-11-17T08:56:58.514Z,4944
2017-11-17T08:57:58.523Z,5060
2017-11-17T08:58:58.544Z,5148
2017-11-17T08:59:58.600Z,5240
2017-11-17T09:00:58.316Z,5304
2017-11-17T09:01:58.324Z,5336
2017-11-17T09:02:58.625Z,5304
2017-11-17T09:03:58.642Z,5284
2017-11-17T09:04:58.378Z,5256
2017-11-17T09:05:58.658Z,5224
2017-11-17T09:06:58.404Z,5232
2017-11-17T09:07:58.417Z,5320
2017-11-17T09:08:58.701Z,5548
2017-11-17T09:09:58.469Z,5916
2017-11-17T09:10:58.206Z,6304
2017-11-17T09:11:58.476Z,6616
2017-11-17T09:12:58.758Z,6816
2017-11-17T09:13:58.516Z,7076
2017-11-17T09:14:58.782Z,7252
2017-11-17T09:15:58.540Z,7360
2017-11-17T09:16:58.559Z,7552
2017-11-17T09:17:58.630Z,7756
2017-11-17T09:18:58.330Z,7852
2017-11-17T09:19:58.912Z,7820
2017-11-17T09:20:58.876Z,7720
2017-11-17T09:21:58.649Z,7564
2017-11-17T09:22:58.661Z,7320
2017-11-17T09:23:58.423Z,6928
2017-11-17T09:24:58.700Z,6456
2017-11-17T09:25:58.728Z,5984
2017-11-17T09:26:59.007Z,5536
2017-11-17T09:27:58.731Z,5136
2017-11-17T09:28:58.755Z,4804
2017-11-17T09:29:59.025Z,4528
2017-11-17T09:30:59.039Z,4280
2017-11-17T09:31:58.580Z,4072
2017-11-17T09:32:58.642Z,3928
2017-11-17T09:33:59.149Z,3832
2017-11-17T09:34:58.848Z,3788
2017-11-17T09:35:58.882Z,3776
2017-11-17T09:36:58.882Z,3736
2017-11-17T09:37:58.639Z,3660
2017-11-17T09:38:59.180Z,3532
2017-11-17T09:39:59.192Z,3384
2017-11-17T09:40:58.952Z,3264
2017-11-17T09:41:59.226Z,3180
2017-11-17T09:42:59.240Z,3152
2017-11-17T09:43:59.001Z,3164
2017-11-17T09:44:59.271Z,3184
2017-11-17T09:45:59.329Z,3180
2017-11-17T09:46:59.043Z,3164
2017-11-17T09:47:59.383Z,3148
2017-11-17T09:48:59.080Z,3080
2017-11-17T09:49:59.095Z,3008
2017-11-17T09:50:59.365Z,2964
2017-11-17T09:51:58.916Z,2940
2017-11-17T09:52:59.396Z,2920
2017-11-17T09:53:59.419Z,2892
2017-11-17T09:54:59.440Z,2892
2017-11-17T09:55:59.444Z,2924
2017-11-17T09:56:59.222Z,2980
2017-11-17T09:57:59.496Z,3068
2017-11-17T09:58:59.493Z,3212
2017-11-17T09:59:59.510Z,3408
2017-11-17T10:00:59.273Z,3676
2017-11-17T10:01:59.285Z,4032
2017-11-17T10:02:59.336Z,4476
2017-11-17T10:03:59.315Z,4948
2017-11-17T10:04:59.332Z,5444
2017-11-17T10:05:59.363Z,5952
2017-11-17T10:06:59.413Z,6440
2017-11-17T10:07:59.379Z,6892
2017-11-17T10:08:59.391Z,7360
2017-11-17T10:09:59.439Z,7808
2017-11-17T10:10:59.675Z,8232
2017-11-17T10:11:59.286Z,8588
2017-11-17T10:12:59.718Z,8864
2017-11-17T10:13:59.220Z,8976
2017-11-17T10:14:59.492Z,8884
2017-11-17T10:15:59.253Z,8644
2017-11-17T10:16:59.516Z,8360
2017-11-17T10:17:59.792Z,8104
2017-11-17T10:18:59.566Z,7884
2017-11-17T10:19:59.575Z,7700
2017-11-17T10:20:59.592Z,7560
2017-11-17T10:21:59.648Z,7420
2017-11-17T10:22:59.904Z,7300
2017-11-17T10:23:59.892Z,7188
2017-11-17T10:24:59.403Z,7088
2017-11-17T10:25:59.923Z,6988
2017-11-17T10:26:59.178Z,7000
2017-11-17T10:27:59.710Z,7112
2017-11-17T10:28:59.726Z,7300
2017-11-17T10:30:00.012Z,7448
2017-11-17T10:30:59.758Z,7460
2017-11-17T10:32:00.045Z,7324
2017-11-17T10:32:59.789Z,7168
2017-11-17T10:33:59.810Z,6988
2017-11-17T10:34:59.817Z,6828
2017-11-17T10:36:00.098Z,6676
2017-11-17T10:37:00.113Z,6588
2017-11-17T10:38:00.137Z,6576
2017-11-17T10:38:59.891Z,6580
2017-11-17T10:39:59.967Z,6564
2017-11-17T10:40:59.929Z,6552
2017-11-17T10:42:00.204Z,6520
2017-11-17T10:43:00.216Z,6452
2017-11-17T10:43:59.976Z,6288
2017-11-17T10:45:00.004Z,6100
2017-11-17T10:46:00.013Z,6000
2017-11-17T10:47:00.290Z,5992
2017-11-17T10:48:00.302Z,6036
2017-11-17T10:48:59.807Z,6088
2017-11-17T10:50:00.337Z,6136
2017-11-17T10:51:00.356Z,6184
2017-11-17T10:52:00.112Z,6256
2017-11-17T10:53:00.397Z,6392
2017-11-17T10:54:00.165Z,6556
2017-11-17T10:54:59.925Z,6736
2017-11-17T10:55:59.921Z,6772
2017-11-17T10:57:00.194Z,6728
2017-11-17T10:58:00.213Z,6636
2017-11-17T10:59:00.284Z,6480
2017-11-17T11:00:00.524Z,6276
2017-11-17T11:01:00.265Z,6064
2017-11-17T11:02:00.549Z,5860
2017-11-17T11:03:00.572Z,5648
2017-11-17T11:04:00.320Z,5476
2017-11-17T11:05:00.348Z,5372
2017-11-17T11:06:00.091Z,5320
2017-11-17T11:07:00.369Z,5284
2017-11-17T11:08:00.639Z,5260
2017-11-17T11:09:00.682Z,5244
2017-11-17T11:10:00.419Z,5224
2017-11-17T11:11:00.441Z,5220
2017-11-17T11:12:00.782Z,5232
2017-11-17T11:13:00.731Z,5272
2017-11-17T11:14:00.897Z,5368
2017-11-17T11:15:00.768Z,5480
2017-11-17T11:16:00.778Z,5600
2017-11-17T11:17:00.798Z,5756
2017-11-17T11:18:00.816Z,5928
2017-11-17T11:19:00.838Z,6152
2017-11-17T11:20:00.880Z,6412
2017-11-17T11:21:00.868Z,6668
2017-11-17T11:22:00.894Z,6844
2017-11-17T11:23:00.910Z,6940
2017-11-17T11:24:00.659Z,6952
2017-11-17T11:25:00.931Z,6928
2017-11-17T11:26:00.436Z,6908
2017-11-17T11:27:00.988Z,6800
2017-11-17T11:28:01.000Z,6744
2017-11-17T11:29:01.055Z,6628
2017-11-17T11:30:00.761Z,6600
2017-11-17T11:31:01.039Z,6600
2017-11-17T11:32:01.053Z,6632
2017-11-17T11:33:00.820Z,6600
2017-11-17T11:34:00.835Z,6432
2017-11-17T11:35:00.588Z,6208
2017-11-17T11:36:01.139Z,5940
2017-11-17T11:37:01.141Z,5708
2017-11-17T11:38:00.912Z,5532
2017-11-17T11:39:01.192Z,5476
2017-11-17T11:40:01.210Z,5516
2017-11-17T11:41:00.698Z,5572
2017-11-17T11:42:01.232Z,5560
2017-11-17T11:43:00.476Z,5440
2017-11-17T11:44:01.288Z,5184
2017-11-17T11:45:01.286Z,4940
2017-11-17T11:46:01.059Z,4744
2017-11-17T11:47:01.325Z,4580
2017-11-17T11:48:01.135Z,4404
2017-11-17T11:49:01.360Z,4220
2017-11-17T11:50:00.600Z,4048
2017-11-17T11:51:01.394Z,3908
2017-11-17T11:52:01.156Z,3812
2017-11-17T11:53:00.656Z,3752
2017-11-17T11:54:01.460Z,3724
2017-11-17T11:55:01.478Z,3696
2017-11-17T11:56:01.232Z,3668
2017-11-17T11:57:01.257Z,3640
2017-11-17T11:58:01.260Z,3628
2017-11-17T11:59:01.276Z,3656
2017-11-17T12:00:01.300Z,3744
2017-11-17T12:01:01.315Z,3872
2017-11-17T12:02:01.069Z,4008
2017-11-17T12:03:01.105Z,4152
2017-11-17T12:04:01.622Z,4308
2017-11-17T12:05:01.701Z,4476
2017-11-17T12:06:01.403Z,4668
2017-11-17T12:07:01.440Z,4860
2017-11-17T12:08:01.186Z,5020
2017-11-17T12:09:01.460Z,5108
2017-11-17T12:10:01.221Z,5164
2017-11-17T12:11:01.230Z,5176
2017-11-17T12:12:01.780Z,5192
2017-11-17T12:13:01.523Z,5192
2017-11-17T12:14:01.278Z,5216
2017-11-17T12:15:01.808Z,5240
2017-11-17T12:16:01.060Z,5236
2017-11-17T12:17:01.591Z,5196
2017-11-17T12:18:01.116Z,5140
2017-11-17T12:19:01.391Z,5108
2017-11-17T12:20:01.924Z,5088
2017-11-17T12:21:01.669Z,5068
2017-11-17T12:22:01.726Z,5016
2017-11-17T12:23:01.951Z,4940
2017-11-17T12:24:01.454Z,4848
2017-11-17T12:25:02.008Z,4784
2017-11-17T12:26:01.751Z,4744
2017-11-17T12:27:01.771Z,4720
2017-11-17T12:28:01.520Z,4744
2017-11-17T12:29:02.078Z,4792
2017-11-17T12:30:01.817Z,4868
2017-11-17T12:31:01.839Z,4960
2017-11-17T12:32:01.870Z,5056
2017-11-17T12:33:01.872Z,5108
2017-11-17T12:34:02.141Z,5112
2017-11-17T12:35:02.170Z,5088
2017-11-17T12:36:01.658Z,5064
2017-11-17T12:37:02.187Z,5072
2017-11-17T12:38:02.306Z,5104
2017-11-17T12:39:02.223Z,5136
2017-11-17T12:40:01.992Z,5152
2017-11-17T12:41:02.301Z,5140
2017-11-17T12:42:02.065Z,5076
2017-11-17T12:43:02.046Z,4984
2017-11-17T12:44:02.078Z,4884
2017-11-17T12:45:02.337Z,4768
2017-11-17T12:46:02.084Z,4652
2017-11-17T12:47:02.107Z,4536
2017-11-17T12:48:02.121Z,4424
2017-11-17T12:49:02.399Z,4328
2017-11-17T12:50:02.415Z,4256
2017-11-17T12:51:02.172Z,4216
2017-11-17T12:52:02.450Z,4196
2017-11-17T12:53:02.208Z,4192
2017-11-17T12:54:02.482Z,4208
2017-11-17T12:55:02.240Z,4252
2017-11-17T12:56:02.512Z,4304
2017-11-17T12:57:02.582Z,4360
2017-11-17T12:58:02.576Z,4392
2017-11-17T12:59:02.107Z,4384
2017-11-17T13:00:02.289Z,4348
2017-11-17T13:01:02.356Z,4272
2017-11-17T13:02:02.364Z,4200
2017-11-17T13:03:02.378Z,4152
2017-11-17T13:04:02.410Z,4124
2017-11-17T13:05:02.409Z,4104
2017-11-17T13:06:02.164Z,4080
2017-11-17T13:07:02.446Z,4032
2017-11-17T13:08:02.197Z,3956
2017-11-17T13:09:02.737Z,3856
2017-11-17T13:10:02.241Z,3760
2017-11-17T13:11:02.562Z,3672
2017-11-17T13:12:02.526Z,3588
2017-11-17T13:13:02.798Z,3492
2017-11-17T13:14:02.812Z,3408
2017-11-17T13:15:02.322Z,3344
2017-11-17T13:16:02.334Z,3300
2017-11-17T13:17:02.888Z,3272
2017-11-17T13:18:02.370Z,3244
2017-11-17T13:19:02.663Z,3228
2017-11-17T13:20:02.771Z,3236
2017-11-17T13:21:02.935Z,3228
2017-11-17T13:22:02.694Z,3204
2017-11-17T13:23:02.982Z,3176
2017-11-17T13:24:02.739Z,3160
2017-11-17T13:25:02.237Z,3152
2017-11-17T13:26:03.039Z,3148
2017-11-17T13:27:03.036Z,3136
2017-11-17T13:28:03.098Z,3128
2017-11-17T13:29:02.561Z,3132
2017-11-17T13:30:03.088Z,3120
2017-11-17T13:31:03.112Z,3104
2017-11-17T13:32:03.167Z,3076
2017-11-17T13:33:02.897Z,3040
2017-11-17T13:34:03.171Z,2996
2017-11-17T13:35:02.915Z,2952
2017-11-17T13:36:03.187Z,2892
2017-11-17T13:37:02.947Z,2828
2017-11-17T13:38:02.964Z,2756
2017-11-17T13:39:02.998Z,2692
2017-11-17T13:40:03.264Z,2628
2017-11-17T13:41:02.498Z,2576
2017-11-17T13:42:02.776Z,2536
2017-11-17T13:43:02.802Z,2512
2017-11-17T13:44:03.341Z,2484
2017-11-17T13:45:03.339Z,2448
2017-11-17T13:46:03.098Z,2432
2017-11-17T13:47:03.138Z,2416
2017-11-17T13:48:03.134Z,2384
2017-11-17T13:49:03.432Z,2356
2017-11-17T13:50:03.222Z,2344
2017-11-17T13:51:03.204Z,2336
2017-11-17T13:52:03.467Z,2356
2017-11-17T13:53:03.480Z,2392
2017-11-17T13:54:03.244Z,2428
2017-11-17T13:55:03.541Z,2480
2017-11-17T13:56:03.273Z,2540
2017-11-17T13:57:03.034Z,2604
2017-11-17T13:58:03.320Z,2664
2017-11-17T13:59:03.594Z,2712